sensor_id;sensor_type;location;lat;lon;timestamp;pressure;altitude;pressure_sealevel;temperature;humidity
62634;BME280;48704;50.534;6.442;2022-09-12T00:02:18;95755.31;;;10.92;100.00
62634;BME280;48704;50.534;6.442;2022-09-12T00:04:43;95757.84;;;10.81;100.00
62634;BME280;48704;50.534;6.442;2022-09-12T00:07:09;95752.69;;;10.88;100.00
62634;BME280;48704;50.534;6.442;2022-09-12T00:09:34;95753.22;;;10.78;100.00
62634;BME280;48704;50.534;6.442;2022-09-12T00:11:59;95747.19;;;10.79;100.00
62634;BME280;48704;50.534;6.442;2022-09-12T00:14:25;95756.75;;;10.63;100.00
62634;BME280;48704;50.534;6.442;2022-09-12T00:16:50;95747.50;;;10.57;100.00
62634;BME280;48704;50.534;6.442;2022-09-12T00:19:15;95752.19;;;10.75;100.00
62634;BME280;48704;50.534;6.442;2022-09-12T00:21:40;95750.19;;;10.90;100.00
62634;BME280;48704;50.534;6.442;2022-09-12T00:24:06;95749.19;;;10.79;100.00
62634;BME280;48704;50.534;6.442;2022-09-12T00:26:32;95742.81;;;10.63;100.00
62634;BME280;48704;50.534;6.442;2022-09-12T00:28:57;95738.88;;;10.94;100.00
62634;BME280;48704;50.534;6.442;2022-09-12T00:31:24;95745.84;;;11.13;100.00
62634;BME280;48704;50.534;6.442;2022-09-12T00:33:51;95744.03;;;11.10;100.00
62634;BME280;48704;50.534;6.442;2022-09-12T00:36:19;95738.50;;;11.01;100.00
62634;BME280;48704;50.534;6.442;2022-09-12T00:38:45;95741.31;;;11.16;100.00
62634;BME280;48704;50.534;6.442;2022-09-12T00:41:18;95731.22;;;11.18;100.00
62634;BME280;48704;50.534;6.442;2022-09-12T00:43:47;95732.75;;;11.19;100.00
62634;BME280;48704;50.534;6.442;2022-09-12T00:46:33;95736.44;;;11.55;100.00
62634;BME280;48704;50.534;6.442;2022-09-12T00:49:07;95728.47;;;11.48;100.00
62634;BME280;48704;50.534;6.442;2022-09-12T00:51:35;95728.38;;;11.57;100.00
62634;BME280;48704;50.534;6.442;2022-09-12T00:54:05;95722.78;;;11.27;100.00
62634;BME280;48704;50.534;6.442;2022-09-12T00:56:33;95722.50;;;10.87;100.00
62634;BME280;48704;50.534;6.442;2022-09-12T00:59:05;95720.66;;;11.22;100.00
62634;BME280;48704;50.534;6.442;2022-09-12T01:01:32;95718.28;;;10.91;100.00
62634;BME280;48704;50.534;6.442;2022-09-12T01:03:57;95716.78;;;11.05;100.00
62634;BME280;48704;50.534;6.442;2022-09-12T01:06:27;95719.06;;;10.92;100.00
62634;BME280;48704;50.534;6.442;2022-09-12T01:08:54;95714.97;;;11.02;100.00
62634;BME280;48704;50.534;6.442;2022-09-12T01:11:21;95714.50;;;11.18;100.00
62634;BME280;48704;50.534;6.442;2022-09-12T01:13:47;95711.03;;;11.23;100.00
62634;BME280;48704;50.534;6.442;2022-09-12T01:16:14;95709.09;;;11.00;100.00
62634;BME280;48704;50.534;6.442;2022-09-12T01:35:20;95712.09;;;10.73;100.00
62634;BME280;48704;50.534;6.442;2022-09-12T01:38:07;95696.09;;;10.58;100.00
62634;BME280;48704;50.534;6.442;2022-09-12T01:40:47;95696.03;;;10.67;100.00
62634;BME280;48704;50.534;6.442;2022-09-12T01:43:27;95696.53;;;10.81;100.00
62634;BME280;48704;50.534;6.442;2022-09-12T01:49:07;95691.78;;;10.96;100.00
62634;BME280;48704;50.534;6.442;2022-09-12T01:52:07;95687.56;;;11.00;100.00
62634;BME280;48704;50.534;6.442;2022-09-12T01:54:34;95684.22;;;11.11;100.00
62634;BME280;48704;50.534;6.442;2022-09-12T01:57:07;95685.75;;;11.12;100.00
62634;BME280;48704;50.534;6.442;2022-09-12T01:59:39;95683.31;;;11.20;100.00
62634;BME280;48704;50.534;6.442;2022-09-12T02:02:14;95685.81;;;11.18;100.00
62634;BME280;48704;50.534;6.442;2022-09-12T02:05:01;95679.66;;;10.99;100.00
62634;BME280;48704;50.534;6.442;2022-09-12T02:07:39;95677.75;;;11.05;100.00
62634;BME280;48704;50.534;6.442;2022-09-12T02:10:14;95678.34;;;11.09;100.00
62634;BME280;48704;50.534;6.442;2022-09-12T02:12:45;95680.44;;;11.14;100.00
62634;BME280;48704;50.534;6.442;2022-09-12T02:15:14;95671.81;;;11.12;100.00
62634;BME280;48704;50.534;6.442;2022-09-12T02:17:43;95669.09;;;11.03;100.00
62634;BME280;48704;50.534;6.442;2022-09-12T02:20:33;95665.78;;;10.90;100.00
62634;BME280;48704;50.534;6.442;2022-09-12T02:23:02;95663.47;;;10.74;100.00
62634;BME280;48704;50.534;6.442;2022-09-12T02:25:30;95667.28;;;10.61;100.00
62634;BME280;48704;50.534;6.442;2022-09-12T02:28:00;95673.44;;;10.65;100.00
62634;BME280;48704;50.534;6.442;2022-09-12T02:30:34;95671.78;;;10.59;100.00
62634;BME280;48704;50.534;6.442;2022-09-12T02:33:26;95665.69;;;10.46;100.00
62634;BME280;48704;50.534;6.442;2022-09-12T02:36:10;95662.69;;;10.34;100.00
62634;BME280;48704;50.534;6.442;2022-09-12T02:38:42;95660.66;;;10.35;100.00
62634;BME280;48704;50.534;6.442;2022-09-12T02:41:10;95663.94;;;10.72;100.00
62634;BME280;48704;50.534;6.442;2022-09-12T02:43:36;95667.69;;;10.84;100.00
62634;BME280;48704;50.534;6.442;2022-09-12T02:46:04;95656.94;;;10.77;100.00
62634;BME280;48704;50.534;6.442;2022-09-12T02:48:34;95653.09;;;10.74;100.00
62634;BME280;48704;50.534;6.442;2022-09-12T02:51:02;95661.63;;;10.70;100.00
62634;BME280;48704;50.534;6.442;2022-09-12T02:53:28;95658.41;;;11.01;100.00
62634;BME280;48704;50.534;6.442;2022-09-12T02:55:53;95651.50;;;10.97;100.00
62634;BME280;48704;50.534;6.442;2022-09-12T02:58:26;95654.88;;;11.01;100.00
62634;BME280;48704;50.534;6.442;2022-09-12T03:00:55;95661.19;;;10.87;100.00
62634;BME280;48704;50.534;6.442;2022-09-12T03:06:36;95636.69;;;10.52;100.00
62634;BME280;48704;50.534;6.442;2022-09-12T03:09:17;95650.63;;;11.20;100.00
62634;BME280;48704;50.534;6.442;2022-09-12T03:12:11;95630.63;;;11.36;100.00
62634;BME280;48704;50.534;6.442;2022-09-12T03:14:50;95644.84;;;10.94;100.00
62634;BME280;48704;50.534;6.442;2022-09-12T03:17:31;95643.38;;;10.84;100.00
62634;BME280;48704;50.534;6.442;2022-09-12T03:20:09;95642.31;;;10.82;100.00
62634;BME280;48704;50.534;6.442;2022-09-12T03:25:33;95641.13;;;10.59;100.00
62634;BME280;48704;50.534;6.442;2022-09-12T03:28:07;95637.16;;;10.75;100.00
62634;BME280;48704;50.534;6.442;2022-09-12T03:30:51;95640.63;;;10.99;100.00
62634;BME280;48704;50.534;6.442;2022-09-12T03:33:23;95636.31;;;11.13;100.00
62634;BME280;48704;50.534;6.442;2022-09-12T03:35:49;95628.88;;;10.80;100.00
62634;BME280;48704;50.534;6.442;2022-09-12T03:38:15;95626.38;;;10.67;100.00
62634;BME280;48704;50.534;6.442;2022-09-12T03:40:41;95629.63;;;10.66;100.00
62634;BME280;48704;50.534;6.442;2022-09-12T03:43:07;95621.75;;;10.64;100.00
62634;BME280;48704;50.534;6.442;2022-09-12T03:45:34;95633.88;;;10.76;100.00
62634;BME280;48704;50.534;6.442;2022-09-12T03:47:59;95629.25;;;10.88;100.00
62634;BME280;48704;50.534;6.442;2022-09-12T03:50:25;95634.25;;;10.84;100.00
62634;BME280;48704;50.534;6.442;2022-09-12T03:52:50;95631.34;;;10.63;100.00
62634;BME280;48704;50.534;6.442;2022-09-12T03:55:16;95629.00;;;10.47;100.00
62634;BME280;48704;50.534;6.442;2022-09-12T03:57:41;95623.56;;;10.29;100.00
62634;BME280;48704;50.534;6.442;2022-09-12T04:00:07;95628.09;;;10.17;100.00
62634;BME280;48704;50.534;6.442;2022-09-12T04:02:33;95624.25;;;10.15;100.00
62634;BME280;48704;50.534;6.442;2022-09-12T04:04:58;95625.78;;;10.16;100.00
62634;BME280;48704;50.534;6.442;2022-09-12T04:07:24;95621.16;;;10.13;100.00
62634;BME280;48704;50.534;6.442;2022-09-12T04:09:49;95622.28;;;10.06;100.00
62634;BME280;48704;50.534;6.442;2022-09-12T04:12:14;95619.22;;;10.04;100.00
62634;BME280;48704;50.534;6.442;2022-09-12T04:14:40;95614.50;;;9.95;100.00
62634;BME280;48704;50.534;6.442;2022-09-12T04:17:05;95608.78;;;9.90;100.00
62634;BME280;48704;50.534;6.442;2022-09-12T04:19:30;95612.00;;;9.97;100.00
62634;BME280;48704;50.534;6.442;2022-09-12T04:21:56;95612.06;;;10.36;100.00
62634;BME280;48704;50.534;6.442;2022-09-12T04:24:21;95614.47;;;10.43;100.00
62634;BME280;48704;50.534;6.442;2022-09-12T04:26:46;95614.19;;;10.41;100.00
62634;BME280;48704;50.534;6.442;2022-09-12T04:29:12;95610.97;;;10.57;100.00
62634;BME280;48704;50.534;6.442;2022-09-12T04:31:39;95605.59;;;10.68;100.00
62634;BME280;48704;50.534;6.442;2022-09-12T04:34:04;95600.94;;;10.36;100.00
62634;BME280;48704;50.534;6.442;2022-09-12T04:36:30;95607.84;;;10.17;100.00
62634;BME280;48704;50.534;6.442;2022-09-12T04:38:56;95608.78;;;10.14;100.00
62634;BME280;48704;50.534;6.442;2022-09-12T04:41:24;95605.28;;;10.04;100.00
62634;BME280;48704;50.534;6.442;2022-09-12T04:44:04;95605.75;;;10.02;100.00
62634;BME280;48704;50.534;6.442;2022-09-12T04:46:32;95602.84;;;10.30;100.00
62634;BME280;48704;50.534;6.442;2022-09-12T04:48:58;95602.09;;;10.44;100.00
62634;BME280;48704;50.534;6.442;2022-09-12T04:51:29;95598.56;;;10.58;100.00
62634;BME280;48704;50.534;6.442;2022-09-12T04:54:00;95600.50;;;10.82;100.00
62634;BME280;48704;50.534;6.442;2022-09-12T04:56:27;95599.53;;;10.55;100.00
62634;BME280;48704;50.534;6.442;2022-09-12T04:58:53;95599.47;;;10.41;100.00
62634;BME280;48704;50.534;6.442;2022-09-12T05:01:21;95596.34;;;10.48;100.00
62634;BME280;48704;50.534;6.442;2022-09-12T05:03:48;95599.00;;;10.42;100.00
62634;BME280;48704;50.534;6.442;2022-09-12T05:06:15;95596.16;;;10.51;100.00
62634;BME280;48704;50.534;6.442;2022-09-12T05:08:41;95595.03;;;10.73;100.00
62634;BME280;48704;50.534;6.442;2022-09-12T05:11:10;95593.31;;;10.90;100.00
62634;BME280;48704;50.534;6.442;2022-09-12T05:13:36;95590.25;;;10.73;100.00
62634;BME280;48704;50.534;6.442;2022-09-12T05:16:03;95592.72;;;10.56;100.00
62634;BME280;48704;50.534;6.442;2022-09-12T05:18:31;95590.28;;;10.49;100.00
62634;BME280;48704;50.534;6.442;2022-09-12T05:20:58;95595.84;;;10.49;100.00
62634;BME280;48704;50.534;6.442;2022-09-12T05:23:24;95597.09;;;10.48;100.00
62634;BME280;48704;50.534;6.442;2022-09-12T05:25:51;95595.41;;;10.65;100.00
62634;BME280;48704;50.534;6.442;2022-09-12T05:28:17;95597.72;;;10.82;100.00
62634;BME280;48704;50.534;6.442;2022-09-12T05:30:43;95595.03;;;10.73;100.00
62634;BME280;48704;50.534;6.442;2022-09-12T05:33:08;95591.69;;;10.68;100.00
62634;BME280;48704;50.534;6.442;2022-09-12T05:35:34;95587.94;;;10.71;100.00
62634;BME280;48704;50.534;6.442;2022-09-12T05:37:59;95590.81;;;11.21;100.00
62634;BME280;48704;50.534;6.442;2022-09-12T05:40:24;95591.03;;;11.03;100.00
62634;BME280;48704;50.534;6.442;2022-09-12T05:42:49;95590.44;;;10.99;100.00
62634;BME280;48704;50.534;6.442;2022-09-12T05:45:15;95599.00;;;10.95;100.00
62634;BME280;48704;50.534;6.442;2022-09-12T05:47:40;95603.69;;;10.89;100.00
62634;BME280;48704;50.534;6.442;2022-09-12T05:50:08;95598.91;;;10.90;100.00
62634;BME280;48704;50.534;6.442;2022-09-12T05:52:35;95603.88;;;10.86;100.00
62634;BME280;48704;50.534;6.442;2022-09-12T05:55:01;95604.84;;;10.83;100.00
62634;BME280;48704;50.534;6.442;2022-09-12T05:57:26;95608.72;;;11.00;100.00
62634;BME280;48704;50.534;6.442;2022-09-12T05:59:51;95608.91;;;11.11;100.00
62634;BME280;48704;50.534;6.442;2022-09-12T06:02:17;95613.88;;;11.22;100.00
62634;BME280;48704;50.534;6.442;2022-09-12T06:04:42;95606.28;;;11.22;100.00
62634;BME280;48704;50.534;6.442;2022-09-12T06:07:07;95611.88;;;11.22;100.00
62634;BME280;48704;50.534;6.442;2022-09-12T06:09:32;95616.41;;;11.34;100.00
62634;BME280;48704;50.534;6.442;2022-09-12T06:11:58;95614.84;;;11.33;100.00
62634;BME280;48704;50.534;6.442;2022-09-12T06:14:23;95610.63;;;11.38;100.00
62634;BME280;48704;50.534;6.442;2022-09-12T06:16:48;95621.19;;;11.49;100.00
62634;BME280;48704;50.534;6.442;2022-09-12T06:19:19;95618.47;;;11.69;100.00
62634;BME280;48704;50.534;6.442;2022-09-12T06:21:46;95628.28;;;11.79;100.00
62634;BME280;48704;50.534;6.442;2022-09-12T06:24:13;95618.72;;;12.21;100.00
62634;BME280;48704;50.534;6.442;2022-09-12T06:26:38;95617.47;;;12.42;100.00
62634;BME280;48704;50.534;6.442;2022-09-12T06:29:04;95612.16;;;12.24;100.00
62634;BME280;48704;50.534;6.442;2022-09-12T06:31:31;95613.81;;;12.36;100.00
62634;BME280;48704;50.534;6.442;2022-09-12T06:34:00;95613.25;;;12.52;100.00
62634;BME280;48704;50.534;6.442;2022-09-12T06:36:28;95607.09;;;12.68;100.00
62634;BME280;48704;50.534;6.442;2022-09-12T06:38:59;95612.00;;;12.53;100.00
62634;BME280;48704;50.534;6.442;2022-09-12T06:41:25;95613.13;;;12.61;100.00
62634;BME280;48704;50.534;6.442;2022-09-12T06:43:51;95611.28;;;12.79;100.00
62634;BME280;48704;50.534;6.442;2022-09-12T06:46:17;95616.44;;;12.86;100.00
62634;BME280;48704;50.534;6.442;2022-09-12T06:48:43;95622.78;;;12.86;100.00
62634;BME280;48704;50.534;6.442;2022-09-12T06:51:11;95617.09;;;13.01;100.00
62634;BME280;48704;50.534;6.442;2022-09-12T06:53:37;95608.31;;;12.88;100.00
62634;BME280;48704;50.534;6.442;2022-09-12T06:56:08;95613.91;;;12.88;100.00
62634;BME280;48704;50.534;6.442;2022-09-12T06:58:35;95605.31;;;12.91;100.00
62634;BME280;48704;50.534;6.442;2022-09-12T07:01:02;95617.75;;;12.90;100.00
62634;BME280;48704;50.534;6.442;2022-09-12T07:03:28;95621.13;;;13.00;100.00
62634;BME280;48704;50.534;6.442;2022-09-12T07:05:54;95617.09;;;13.01;100.00
62634;BME280;48704;50.534;6.442;2022-09-12T07:08:19;95617.63;;;13.25;100.00
62634;BME280;48704;50.534;6.442;2022-09-12T07:10:45;95616.63;;;13.28;100.00
62634;BME280;48704;50.534;6.442;2022-09-12T07:13:10;95619.84;;;13.47;100.00
62634;BME280;48704;50.534;6.442;2022-09-12T07:15:35;95615.47;;;13.72;100.00
62634;BME280;48704;50.534;6.442;2022-09-12T07:18:01;95610.88;;;13.75;100.00
62634;BME280;48704;50.534;6.442;2022-09-12T07:20:27;95611.34;;;14.04;100.00
62634;BME280;48704;50.534;6.442;2022-09-12T07:22:52;95608.59;;;14.16;100.00
62634;BME280;48704;50.534;6.442;2022-09-12T07:25:17;95611.47;;;14.27;100.00
62634;BME280;48704;50.534;6.442;2022-09-12T07:27:42;95610.56;;;14.41;100.00
62634;BME280;48704;50.534;6.442;2022-09-12T07:30:08;95619.25;;;14.54;100.00
62634;BME280;48704;50.534;6.442;2022-09-12T07:32:33;95622.94;;;14.77;100.00
62634;BME280;48704;50.534;6.442;2022-09-12T07:34:58;95629.59;;;14.91;100.00
62634;BME280;48704;50.534;6.442;2022-09-12T07:37:24;95622.75;;;15.09;100.00
62634;BME280;48704;50.534;6.442;2022-09-12T07:39:49;95613.84;;;15.16;100.00
62634;BME280;48704;50.534;6.442;2022-09-12T07:42:14;95617.41;;;15.16;100.00
62634;BME280;48704;50.534;6.442;2022-09-12T07:44:40;95621.00;;;15.33;100.00
62634;BME280;48704;50.534;6.442;2022-09-12T07:47:06;95617.69;;;15.41;100.00
62634;BME280;48704;50.534;6.442;2022-09-12T07:49:31;95620.00;;;15.48;100.00
62634;BME280;48704;50.534;6.442;2022-09-12T07:51:56;95621.28;;;15.63;100.00
62634;BME280;48704;50.534;6.442;2022-09-12T07:54:21;95616.16;;;15.45;100.00
62634;BME280;48704;50.534;6.442;2022-09-12T07:56:47;95620.25;;;15.44;100.00
62634;BME280;48704;50.534;6.442;2022-09-12T07:59:12;95621.00;;;15.33;100.00
62634;BME280;48704;50.534;6.442;2022-09-12T08:01:38;95625.34;;;15.46;100.00
62634;BME280;48704;50.534;6.442;2022-09-12T08:04:04;95623.81;;;15.33;100.00
62634;BME280;48704;50.534;6.442;2022-09-12T08:06:29;95629.41;;;15.33;100.00
62634;BME280;48704;50.534;6.442;2022-09-12T08:08:57;95622.53;;;15.34;100.00
62634;BME280;48704;50.534;6.442;2022-09-12T08:11:24;95620.50;;;15.41;100.00
62634;BME280;48704;50.534;6.442;2022-09-12T08:13:50;95629.22;;;15.76;100.00
62634;BME280;48704;50.534;6.442;2022-09-12T08:16:18;95627.66;;;16.09;100.00
62634;BME280;48704;50.534;6.442;2022-09-12T08:18:45;95628.59;;;16.39;100.00
62634;BME280;48704;50.534;6.442;2022-09-12T08:21:15;95623.19;;;16.69;100.00
62634;BME280;48704;50.534;6.442;2022-09-12T08:23:42;95616.28;;;16.64;100.00
62634;BME280;48704;50.534;6.442;2022-09-12T08:26:08;95618.06;;;16.67;100.00
62634;BME280;48704;50.534;6.442;2022-09-12T08:28:34;95627.78;;;16.55;100.00
62634;BME280;48704;50.534;6.442;2022-09-12T08:31:07;95621.34;;;16.71;100.00
62634;BME280;48704;50.534;6.442;2022-09-12T08:33:33;95631.41;;;17.08;100.00
62634;BME280;48704;50.534;6.442;2022-09-12T08:36:19;95629.31;;;17.14;100.00
62634;BME280;48704;50.534;6.442;2022-09-12T08:38:47;95632.34;;;17.27;100.00
62634;BME280;48704;50.534;6.442;2022-09-12T08:44:19;95619.78;;;17.28;100.00
62634;BME280;48704;50.534;6.442;2022-09-12T08:52:03;95611.97;;;17.46;93.64
62634;BME280;48704;50.534;6.442;2022-09-12T08:54:30;95610.41;;;17.50;99.38
62634;BME280;48704;50.534;6.442;2022-09-12T08:57:04;95596.69;;;17.71;95.20
62634;BME280;48704;50.534;6.442;2022-09-12T08:59:37;95608.72;;;18.01;92.00
62634;BME280;48704;50.534;6.442;2022-09-12T09:04:51;95612.16;;;18.43;87.69
62634;BME280;48704;50.534;6.442;2022-09-12T09:10:23;95598.97;;;18.76;83.77
62634;BME280;48704;50.534;6.442;2022-09-12T09:18:22;95608.06;;;19.06;83.29
62634;BME280;48704;50.534;6.442;2022-09-12T09:20:52;95597.94;;;19.48;77.20
62634;BME280;48704;50.534;6.442;2022-09-12T09:23:40;95587.84;;;19.72;78.47
62634;BME280;48704;50.534;6.442;2022-09-12T09:26:21;95593.66;;;19.92;75.62
62634;BME280;48704;50.534;6.442;2022-09-12T09:28:58;95586.72;;;19.93;72.94
62634;BME280;48704;50.534;6.442;2022-09-12T09:31:29;95585.41;;;20.08;72.23
62634;BME280;48704;50.534;6.442;2022-09-12T09:33:57;95580.03;;;20.49;69.92
62634;BME280;48704;50.534;6.442;2022-09-12T09:39:08;95570.47;;;20.39;70.38
62634;BME280;48704;50.534;6.442;2022-09-12T09:44:04;95573.94;;;20.32;69.00
62634;BME280;48704;50.534;6.442;2022-09-12T09:46:30;95580.28;;;20.38;65.94
62634;BME280;48704;50.534;6.442;2022-09-12T09:48:56;95574.56;;;20.91;65.47
62634;BME280;48704;50.534;6.442;2022-09-12T09:51:31;95568.13;;;20.90;64.27
62634;BME280;48704;50.534;6.442;2022-09-12T09:54:02;95565.63;;;20.87;64.22
62634;BME280;48704;50.534;6.442;2022-09-12T09:56:35;95578.50;;;20.48;63.05
62634;BME280;48704;50.534;6.442;2022-09-12T09:59:20;95571.09;;;21.19;62.32
62634;BME280;48704;50.534;6.442;2022-09-12T10:01:53;95577.94;;;20.89;63.39
62634;BME280;48704;50.534;6.442;2022-09-12T10:04:24;95574.38;;;21.57;62.42
62634;BME280;48704;50.534;6.442;2022-09-12T10:06:52;95570.22;;;21.58;60.38
62634;BME280;48704;50.534;6.442;2022-09-12T10:11:44;95567.13;;;21.01;62.73
62634;BME280;48704;50.534;6.442;2022-09-12T10:14:29;95571.94;;;20.14;61.12
62634;BME280;48704;50.534;6.442;2022-09-12T10:16:55;95568.88;;;20.12;63.71
62634;BME280;48704;50.534;6.442;2022-09-12T10:21:53;95571.75;;;20.25;66.03
62634;BME280;48704;50.534;6.442;2022-09-12T10:24:20;95568.03;;;20.83;65.13
62634;BME280;48704;50.534;6.442;2022-09-12T10:26:56;95563.91;;;21.18;60.71
62634;BME280;48704;50.534;6.442;2022-09-12T10:29:30;95554.47;;;21.70;56.38
62634;BME280;48704;50.534;6.442;2022-09-12T10:31:59;95553.28;;;21.45;55.72
62634;BME280;48704;50.534;6.442;2022-09-12T10:34:43;95555.56;;;22.65;54.34
62634;BME280;48704;50.534;6.442;2022-09-12T10:37:29;95543.47;;;23.09;51.51
62634;BME280;48704;50.534;6.442;2022-09-12T10:39:57;95546.78;;;23.28;51.66
62634;BME280;48704;50.534;6.442;2022-09-12T10:42:46;95547.47;;;23.72;50.86
62634;BME280;48704;50.534;6.442;2022-09-12T10:47:52;95546.28;;;23.60;48.50
62634;BME280;48704;50.534;6.442;2022-09-12T10:50:30;95548.78;;;24.17;46.79
62634;BME280;48704;50.534;6.442;2022-09-12T10:53:19;95537.59;;;24.04;48.20
62634;BME280;48704;50.534;6.442;2022-09-12T10:56:12;95528.84;;;23.63;47.13
62634;BME280;48704;50.534;6.442;2022-09-12T11:07:07;95524.88;;;24.05;46.96
62634;BME280;48704;50.534;6.442;2022-09-12T11:09:50;95523.47;;;24.74;44.68
62634;BME280;48704;50.534;6.442;2022-09-12T11:12:32;95524.31;;;24.29;43.26
62634;BME280;48704;50.534;6.442;2022-09-12T11:18:22;95519.94;;;25.39;41.28
62634;BME280;48704;50.534;6.442;2022-09-12T11:26:33;95492.13;;;25.79;41.76
62634;BME280;48704;50.534;6.442;2022-09-12T11:34:24;95493.19;;;25.91;39.78
62634;BME280;48704;50.534;6.442;2022-09-12T11:40:04;95485.34;;;25.67;42.00
62634;BME280;48704;50.534;6.442;2022-09-12T11:42:35;95490.06;;;26.91;39.49
62634;BME280;48704;50.534;6.442;2022-09-12T11:45:12;95488.56;;;27.07;36.65
62634;BME280;48704;50.534;6.442;2022-09-12T11:47:40;95486.84;;;27.48;35.94
62634;BME280;48704;50.534;6.442;2022-09-12T11:50:20;95489.56;;;27.46;36.10
62634;BME280;48704;50.534;6.442;2022-09-12T11:52:49;95484.09;;;27.68;36.20
62634;BME280;48704;50.534;6.442;2022-09-12T11:55:18;95481.19;;;26.52;37.46
62634;BME280;48704;50.534;6.442;2022-09-12T11:57:55;95478.88;;;27.47;36.09
62634;BME280;48704;50.534;6.442;2022-09-12T12:00:28;95477.63;;;27.67;37.18
62634;BME280;48704;50.534;6.442;2022-09-12T12:05:56;95471.06;;;28.30;35.88
62634;BME280;48704;50.534;6.442;2022-09-12T12:08:25;95472.44;;;27.92;34.52
62634;BME280;48704;50.534;6.442;2022-09-12T12:10:53;95469.44;;;28.56;35.22
62634;BME280;48704;50.534;6.442;2022-09-12T12:13:27;95463.84;;;29.06;33.37
62634;BME280;48704;50.534;6.442;2022-09-12T12:16:06;95458.91;;;28.87;32.23
62634;BME280;48704;50.534;6.442;2022-09-12T12:18:37;95461.72;;;28.78;32.62
62634;BME280;48704;50.534;6.442;2022-09-12T12:29:12;95469.81;;;27.50;33.61
62634;BME280;48704;50.534;6.442;2022-09-12T12:34:35;95456.00;;;27.83;32.64
62634;BME280;48704;50.534;6.442;2022-09-12T12:44:53;95457.91;;;27.44;32.39
62634;BME280;48704;50.534;6.442;2022-09-12T12:47:29;95453.28;;;28.60;31.96
62634;BME280;48704;50.534;6.442;2022-09-12T12:50:06;95450.78;;;28.09;33.35
62634;BME280;48704;50.534;6.442;2022-09-12T12:52:48;95444.41;;;28.56;31.57
62634;BME280;48704;50.534;6.442;2022-09-12T12:55:27;95433.69;;;28.86;31.00
62634;BME280;48704;50.534;6.442;2022-09-12T12:57:56;95433.78;;;29.26;29.54
62634;BME280;48704;50.534;6.442;2022-09-12T13:02:52;95438.59;;;27.62;32.57
62634;BME280;48704;50.534;6.442;2022-09-12T13:05:22;95427.03;;;28.35;32.29
62634;BME280;48704;50.534;6.442;2022-09-12T13:08:05;95436.38;;;28.65;30.95
62634;BME280;48704;50.534;6.442;2022-09-12T13:10:32;95421.91;;;28.43;31.50
62634;BME280;48704;50.534;6.442;2022-09-12T13:13:03;95429.00;;;28.52;32.18
62634;BME280;48704;50.534;6.442;2022-09-12T13:18:05;95422.50;;;27.40;33.49
62634;BME280;48704;50.534;6.442;2022-09-12T13:21:16;95433.06;;;27.74;34.71
62634;BME280;48704;50.534;6.442;2022-09-12T13:23:27;95423.56;;;28.46;32.38
62634;BME280;48704;50.534;6.442;2022-09-12T13:25:55;95426.69;;;29.08;32.22
62634;BME280;48704;50.534;6.442;2022-09-12T13:28:21;95423.59;;;29.45;31.04
62634;BME280;48704;50.534;6.442;2022-09-12T13:30:53;95418.97;;;29.30;30.56
62634;BME280;48704;50.534;6.442;2022-09-12T13:38:35;95417.81;;;28.66;32.80
62634;BME280;48704;50.534;6.442;2022-09-12T13:41:26;95414.56;;;27.84;33.53
62634;BME280;48704;50.534;6.442;2022-09-12T13:43:57;95413.00;;;28.58;31.83
62634;BME280;48704;50.534;6.442;2022-09-12T13:46:32;95415.84;;;28.20;33.40
62634;BME280;48704;50.534;6.442;2022-09-12T13:49:00;95416.16;;;28.62;31.88
62634;BME280;48704;50.534;6.442;2022-09-12T13:51:30;95417.22;;;29.56;31.63
62634;BME280;48704;50.534;6.442;2022-09-12T13:53:58;95413.91;;;29.50;30.88
62634;BME280;48704;50.534;6.442;2022-09-12T13:56:26;95403.75;;;29.08;30.93
62634;BME280;48704;50.534;6.442;2022-09-12T13:58:54;95418.53;;;28.18;33.09
62634;BME280;48704;50.534;6.442;2022-09-12T14:01:22;95412.09;;;28.75;32.56
62634;BME280;48704;50.534;6.442;2022-09-12T14:03:51;95406.03;;;28.81;32.56
62634;BME280;48704;50.534;6.442;2022-09-12T14:06:44;95406.59;;;29.18;31.20
62634;BME280;48704;50.534;6.442;2022-09-12T14:09:22;95401.03;;;29.60;30.44
62634;BME280;48704;50.534;6.442;2022-09-12T14:11:48;95399.44;;;28.59;32.28
62634;BME280;48704;50.534;6.442;2022-09-12T14:14:33;95390.97;;;29.40;31.00
62634;BME280;48704;50.534;6.442;2022-09-12T14:17:07;95388.00;;;30.21;29.75
62634;BME280;48704;50.534;6.442;2022-09-12T14:19:39;95400.31;;;27.30;32.91
62634;BME280;48704;50.534;6.442;2022-09-12T14:22:08;95392.31;;;28.31;32.02
62634;BME280;48704;50.534;6.442;2022-09-12T14:24:36;95405.53;;;27.98;33.54
62634;BME280;48704;50.534;6.442;2022-09-12T14:27:03;95394.91;;;29.45;30.51
62634;BME280;48704;50.534;6.442;2022-09-12T14:29:29;95399.28;;;30.29;29.52
62634;BME280;48704;50.534;6.442;2022-09-12T14:32:02;95384.28;;;30.73;28.94
62634;BME280;48704;50.534;6.442;2022-09-12T14:34:28;95378.31;;;31.14;27.58
62634;BME280;48704;50.534;6.442;2022-09-12T14:36:54;95379.34;;;31.42;27.14
62634;BME280;48704;50.534;6.442;2022-09-12T14:42:10;95352.50;;;29.24;29.12
62634;BME280;48704;50.534;6.442;2022-09-12T14:44:37;95356.41;;;28.88;29.58
62634;BME280;48704;50.534;6.442;2022-09-12T14:47:12;95355.78;;;30.02;28.37
62634;BME280;48704;50.534;6.442;2022-09-12T14:49:38;95358.72;;;29.20;29.00
62634;BME280;48704;50.534;6.442;2022-09-12T14:52:05;95349.91;;;29.69;29.29
62634;BME280;48704;50.534;6.442;2022-09-12T14:57:04;95351.03;;;29.54;29.22
62634;BME280;48704;50.534;6.442;2022-09-12T15:02:20;95362.72;;;28.96;30.33
62634;BME280;48704;50.534;6.442;2022-09-12T15:07:33;95366.63;;;27.39;32.56
62634;BME280;48704;50.534;6.442;2022-09-12T15:10:01;95361.34;;;26.54;34.16
62634;BME280;48704;50.534;6.442;2022-09-12T15:12:27;95373.28;;;26.26;36.29
62634;BME280;48704;50.534;6.442;2022-09-12T15:14:58;95367.06;;;26.20;34.50